createdAt,value
2022-09-09T00:00:19.035Z,20.27
2022-09-09T00:02:53.366Z,20.27
2022-09-09T00:05:28.457Z,20.22
2022-09-09T00:08:02.160Z,20.20
2022-09-09T00:10:34.913Z,20.18
2022-09-09T00:13:17.231Z,20.18
2022-09-09T00:15:57.869Z,20.17
2022-09-09T00:18:31.244Z,20.18
2022-09-09T00:21:05.463Z,20.15
2022-09-09T00:23:37.674Z,20.16
2022-09-09T00:26:14.171Z,20.13
2022-09-09T00:28:48.254Z,20.12
2022-09-09T00:31:21.928Z,20.11
2022-09-09T00:33:51.719Z,20.13
2022-09-09T00:36:23.950Z,20.11
2022-09-09T00:38:55.992Z,20.10
2022-09-09T00:41:31.718Z,20.11
2022-09-09T00:44:05.221Z,20.12
2022-09-09T00:47:03.729Z,20.11
2022-09-09T00:49:42.802Z,20.13
2022-09-09T00:52:24.861Z,20.13
2022-09-09T00:55:05.333Z,20.14
2022-09-09T00:57:34.933Z,20.16
2022-09-09T01:00:19.875Z,20.16
2022-09-09T01:03:05.422Z,20.18
2022-09-09T01:05:43.011Z,20.24
2022-09-09T01:08:29.274Z,20.21
2022-09-09T01:11:00.546Z,20.20
2022-09-09T01:13:34.806Z,20.20
2022-09-09T01:16:12.659Z,20.18
2022-09-09T01:18:47.726Z,20.17
2022-09-09T01:21:26.978Z,20.13
2022-09-09T01:24:14.702Z,20.11
2022-09-09T01:27:12.604Z,20.11
2022-09-09T01:29:41.392Z,20.12
2022-09-09T01:32:42.845Z,20.09
2022-09-09T01:35:16.818Z,20.07
2022-09-09T01:37:45.037Z,20.07
2022-09-09T01:40:13.607Z,20.03
2022-09-09T01:42:43.388Z,20.01
2022-09-09T01:45:11.903Z,19.97
2022-09-09T01:47:40.358Z,19.89
2022-09-09T01:50:19.074Z,19.85
2022-09-09T01:52:51.239Z,19.82
2022-09-09T01:55:30.346Z,19.80
2022-09-09T01:58:12.015Z,19.79
2022-09-09T02:00:49.781Z,19.77
2022-09-09T02:03:24.354Z,19.80
2022-09-09T02:06:08.025Z,19.86
2022-09-09T02:08:45.611Z,19.87
2022-09-09T02:11:15.901Z,19.89
2022-09-09T02:13:53.021Z,19.88
2022-09-09T02:16:26.478Z,19.87
2022-09-09T02:19:00.225Z,19.77
2022-09-09T02:21:37.773Z,19.71
2022-09-09T02:24:09.963Z,19.71
2022-09-09T02:26:46.054Z,19.70
2022-09-09T02:29:22.272Z,19.70
2022-09-09T02:31:53.119Z,19.77
2022-09-09T02:34:28.648Z,19.77
2022-09-09T02:37:00.419Z,19.82
2022-09-09T02:39:28.434Z,19.87
2022-09-09T02:41:56.955Z,19.84
2022-09-09T02:44:33.627Z,19.88
2022-09-09T02:47:18.486Z,19.89
2022-09-09T02:49:55.329Z,19.92
2022-09-09T02:52:31.788Z,19.92
2022-09-09T02:55:07.506Z,19.97
2022-09-09T02:57:37.419Z,19.98
2022-09-09T03:00:09.844Z,20.00
2022-09-09T03:02:38.316Z,20.01
2022-09-09T03:05:08.925Z,19.91
2022-09-09T03:07:37.567Z,19.89
2022-09-09T03:10:06.319Z,19.89
2022-09-09T03:12:34.625Z,19.97
2022-09-09T03:15:02.662Z,20.00
2022-09-09T03:17:32.066Z,20.00
2022-09-09T03:20:00.097Z,19.99
2022-09-09T03:22:28.221Z,19.94
2022-09-09T03:24:58.557Z,19.98
2022-09-09T03:27:26.679Z,19.96
2022-09-09T03:29:54.682Z,19.94
2022-09-09T03:32:26.754Z,19.87
2022-09-09T03:34:57.626Z,19.85
2022-09-09T03:37:25.986Z,19.87
2022-09-09T03:39:55.596Z,19.85
2022-09-09T03:42:24.837Z,19.88
2022-09-09T03:44:56.010Z,19.89
2022-09-09T03:47:26.541Z,19.85
2022-09-09T03:50:00.685Z,19.82
2022-09-09T03:52:30.554Z,19.82
2022-09-09T03:54:58.855Z,19.82
2022-09-09T03:57:26.836Z,19.83
2022-09-09T03:59:55.430Z,19.84
2022-09-09T04:02:23.672Z,19.87
2022-09-09T04:04:51.911Z,19.90
2022-09-09T04:07:22.493Z,19.90
2022-09-09T04:09:50.661Z,19.90
2022-09-09T04:12:19.090Z,19.94
2022-09-09T04:14:47.184Z,19.92
2022-09-09T04:17:15.417Z,19.95
2022-09-09T04:19:44.287Z,19.96
2022-09-09T04:22:12.420Z,19.94
2022-09-09T04:24:44.508Z,19.92
2022-09-09T04:27:16.385Z,19.94
2022-09-09T04:29:44.429Z,19.95
2022-09-09T04:32:12.622Z,19.95
2022-09-09T04:34:42.264Z,19.94
2022-09-09T04:37:11.055Z,19.97
2022-09-09T04:39:41.658Z,20.00
2022-09-09T04:42:09.790Z,20.02
2022-09-09T04:44:37.889Z,20.03
2022-09-09T04:47:06.659Z,20.02
2022-09-09T04:49:34.906Z,20.03
2022-09-09T04:52:03.365Z,20.05
2022-09-09T04:54:33.273Z,20.03
2022-09-09T04:57:03.065Z,20.04
2022-09-09T04:59:31.306Z,20.06
2022-09-09T05:02:02.661Z,20.10
2022-09-09T05:04:30.909Z,20.11
2022-09-09T05:07:00.234Z,20.07
2022-09-09T05:09:28.798Z,20.05
2022-09-09T05:11:57.005Z,20.02
2022-09-09T05:14:31.579Z,20.05
2022-09-09T05:17:02.200Z,20.02
2022-09-09T05:19:31.606Z,20.03
2022-09-09T05:21:59.689Z,20.03
2022-09-09T05:24:35.107Z,20.02
2022-09-09T05:27:07.042Z,20.03
2022-09-09T05:29:36.631Z,20.06
2022-09-09T05:32:07.156Z,20.12
2022-09-09T05:34:38.621Z,20.14
2022-09-09T05:37:07.795Z,20.14
2022-09-09T05:39:37.970Z,20.17
2022-09-09T05:42:07.154Z,20.19
2022-09-09T05:44:37.061Z,20.20
2022-09-09T05:47:05.596Z,20.22
2022-09-09T05:49:33.933Z,20.29
2022-09-09T05:52:02.031Z,20.24
2022-09-09T05:54:30.028Z,20.24
2022-09-09T05:56:58.275Z,20.25
2022-09-09T05:59:26.291Z,20.22
2022-09-09T06:01:58.641Z,20.24
2022-09-09T06:04:36.777Z,20.24
2022-09-09T06:07:06.630Z,20.29
2022-09-09T06:09:34.714Z,20.33
2022-09-09T06:12:03.582Z,20.44
2022-09-09T06:14:34.951Z,20.43
2022-09-09T06:17:06.321Z,20.42
2022-09-09T06:19:34.478Z,20.39
2022-09-09T06:22:03.166Z,20.41
2022-09-09T06:24:34.510Z,20.45
2022-09-09T06:27:04.482Z,20.42
2022-09-09T06:29:35.986Z,20.53
2022-09-09T06:32:06.128Z,20.55
2022-09-09T06:34:34.179Z,20.59
2022-09-09T06:37:02.554Z,20.74
2022-09-09T06:39:37.289Z,20.73
2022-09-09T06:42:05.783Z,20.80
2022-09-09T06:44:51.694Z,20.89
2022-09-09T06:47:28.274Z,20.88
2022-09-09T06:49:58.069Z,20.92
2022-09-09T06:52:26.945Z,20.96
2022-09-09T06:54:56.773Z,20.98
2022-09-09T06:57:36.934Z,21.01
2022-09-09T07:00:10.494Z,21.08
2022-09-09T07:02:40.738Z,21.14
2022-09-09T07:05:10.928Z,21.13
2022-09-09T07:07:40.205Z,21.20
2022-09-09T07:10:10.505Z,21.23
2022-09-09T07:12:39.624Z,21.27
2022-09-09T07:15:12.149Z,21.31
2022-09-09T07:17:45.021Z,21.35
2022-09-09T07:20:13.812Z,21.28
2022-09-09T07:22:42.265Z,21.27
2022-09-09T07:25:11.646Z,21.27
2022-09-09T07:27:39.778Z,21.33
2022-09-09T07:30:09.565Z,21.35
2022-09-09T07:32:37.941Z,21.43
2022-09-09T07:35:08.466Z,21.52
2022-09-09T07:37:39.256Z,21.49
2022-09-09T07:40:08.421Z,21.53
2022-09-09T07:42:37.389Z,21.57
2022-09-09T07:45:06.716Z,21.67
2022-09-09T07:47:35.168Z,21.89
2022-09-09T07:50:04.038Z,22.04
2022-09-09T07:52:35.930Z,22.39
2022-09-09T07:55:07.488Z,22.62
2022-09-09T07:57:35.685Z,22.65
2022-09-09T08:00:06.058Z,22.69
2022-09-09T08:02:40.422Z,22.80
2022-09-09T08:05:10.488Z,23.18
2022-09-09T08:07:42.700Z,23.59
2022-09-09T08:10:11.563Z,23.72
2022-09-09T08:13:01.494Z,23.79
2022-09-09T08:15:31.101Z,23.81
2022-09-09T08:17:59.383Z,23.94
2022-09-09T08:20:28.918Z,23.98
2022-09-09T08:23:00.015Z,24.13
2022-09-09T08:25:28.043Z,24.17
2022-09-09T08:27:56.893Z,24.13
2022-09-09T08:30:25.196Z,24.12
2022-09-09T08:32:53.971Z,23.97
2022-09-09T08:35:23.155Z,23.98
2022-09-09T08:37:56.011Z,24.05
2022-09-09T08:40:31.318Z,24.32
2022-09-09T08:43:02.701Z,24.44
2022-09-09T08:45:36.554Z,24.33
2022-09-09T08:48:24.831Z,24.19
2022-09-09T08:50:53.541Z,24.16
2022-09-09T08:53:32.318Z,24.23
2022-09-09T08:56:09.566Z,24.26
2022-09-09T08:58:51.093Z,24.46
2022-09-09T09:01:48.043Z,24.74
2022-09-09T09:04:35.998Z,24.86
2022-09-09T09:07:15.809Z,24.84
2022-09-09T09:09:59.818Z,24.98
2022-09-09T09:12:37.299Z,25.30
2022-09-09T09:15:17.151Z,25.31
2022-09-09T09:17:45.770Z,25.24
2022-09-09T09:20:16.365Z,25.34
2022-09-09T09:22:51.738Z,25.45
2022-09-09T09:25:23.687Z,25.34
2022-09-09T09:28:01.701Z,25.14
2022-09-09T09:30:38.762Z,25.07
2022-09-09T09:33:17.366Z,24.91
2022-09-09T09:35:45.407Z,24.87
2022-09-09T09:41:09.632Z,25.27
2022-09-09T09:43:43.404Z,25.59
2022-09-09T09:46:24.666Z,26.27
2022-09-09T09:49:01.370Z,26.65
2022-09-09T09:51:33.244Z,27.17
2022-09-09T09:54:17.148Z,27.50
2022-09-09T09:56:49.761Z,27.53
2022-09-09T09:59:40.702Z,28.24
2022-09-09T10:02:20.758Z,29.02
2022-09-09T10:05:03.728Z,28.92
2022-09-09T10:07:34.357Z,28.34
2022-09-09T10:10:02.767Z,28.03
2022-09-09T10:12:43.227Z,27.99
2022-09-09T10:15:29.430Z,28.25
2022-09-09T10:18:10.882Z,28.14
2022-09-09T10:20:47.875Z,27.74
2022-09-09T10:23:29.718Z,27.36
2022-09-09T10:26:16.087Z,27.10
2022-09-09T10:29:09.698Z,26.76
2022-09-09T10:31:46.111Z,26.64
2022-09-09T10:34:29.684Z,26.67
2022-09-09T10:37:00.502Z,26.34
2022-09-09T10:39:40.713Z,26.07
2022-09-09T10:42:14.465Z,25.97
2022-09-09T10:44:58.754Z,25.88
2022-09-09T10:47:47.490Z,25.90
2022-09-09T10:53:37.625Z,27.36
2022-09-09T10:56:10.234Z,28.10
2022-09-09T10:58:46.326Z,27.93
2022-09-09T11:01:19.744Z,27.42
2022-09-09T11:03:56.452Z,26.86
2022-09-09T11:06:30.968Z,27.07
2022-09-09T11:09:02.373Z,28.21
2022-09-09T11:11:34.833Z,29.36
2022-09-09T11:14:07.657Z,29.91
2022-09-09T11:16:43.451Z,30.51
2022-09-09T11:19:22.341Z,30.96
2022-09-09T11:21:53.044Z,31.51
2022-09-09T11:24:27.821Z,31.30
2022-09-09T11:27:00.788Z,31.38
2022-09-09T11:29:53.615Z,31.43
2022-09-09T11:32:42.283Z,31.73
2022-09-09T11:35:27.127Z,31.82
2022-09-09T11:38:20.854Z,32.24
2022-09-09T11:40:56.006Z,32.73
2022-09-09T11:43:27.866Z,32.81
2022-09-09T11:46:01.149Z,32.61
2022-09-09T11:48:35.624Z,32.22
2022-09-09T11:51:14.560Z,32.26
2022-09-09T11:53:53.206Z,31.59
2022-09-09T11:56:30.973Z,30.77
2022-09-09T11:59:03.089Z,30.08
2022-09-09T12:01:39.906Z,29.71
2022-09-09T12:04:22.204Z,30.13
2022-09-09T12:06:55.789Z,29.91
2022-09-09T12:09:45.810Z,29.51
2022-09-09T12:12:39.292Z,29.04
2022-09-09T12:15:29.961Z,28.90
2022-09-09T12:18:03.123Z,29.13
2022-09-09T12:20:37.284Z,29.17
2022-09-09T12:23:26.160Z,29.30
2022-09-09T12:26:29.979Z,30.28
2022-09-09T12:29:07.872Z,31.14
2022-09-09T12:31:45.721Z,31.84
2022-09-09T12:34:18.218Z,32.19
2022-09-09T12:36:54.149Z,32.55
2022-09-09T12:39:31.857Z,32.25
2022-09-09T12:42:00.010Z,31.63
2022-09-09T12:44:30.141Z,30.82
2022-09-09T12:47:00.551Z,30.05
2022-09-09T12:49:35.104Z,29.65
2022-09-09T12:52:07.339Z,29.39
2022-09-09T12:54:38.784Z,29.26
2022-09-09T12:57:07.770Z,29.14
2022-09-09T12:59:41.383Z,29.05
2022-09-09T13:02:20.486Z,28.93
2022-09-09T13:04:49.305Z,28.79
2022-09-09T13:07:17.444Z,28.58
2022-09-09T13:09:48.379Z,28.40
2022-09-09T13:12:20.068Z,27.95
2022-09-09T13:14:51.882Z,27.74
2022-09-09T13:17:23.307Z,28.02
2022-09-09T13:19:53.966Z,28.47
2022-09-09T13:22:33.836Z,28.60
2022-09-09T13:25:08.157Z,28.40
2022-09-09T13:27:39.910Z,28.12
2022-09-09T13:30:23.957Z,27.94
2022-09-09T13:33:03.203Z,27.83
2022-09-09T13:35:31.750Z,27.70
2022-09-09T13:38:01.290Z,27.71
2022-09-09T13:40:31.431Z,27.78
2022-09-09T13:43:00.559Z,27.76
2022-09-09T13:45:29.064Z,27.80
2022-09-09T13:47:57.789Z,27.82
2022-09-09T13:50:28.495Z,27.82
2022-09-09T13:52:58.977Z,27.91
2022-09-09T13:55:28.929Z,27.88
2022-09-09T13:58:01.498Z,27.99
2022-09-09T14:00:32.289Z,28.16
2022-09-09T14:03:03.123Z,28.24
2022-09-09T14:05:33.970Z,28.23
2022-09-09T14:08:02.708Z,28.06
2022-09-09T14:10:30.713Z,27.95
2022-09-09T14:13:00.153Z,28.04
2022-09-09T14:15:28.624Z,28.16
2022-09-09T14:17:56.985Z,28.03
2022-09-09T14:20:24.991Z,27.84
2022-09-09T14:22:54.430Z,27.63
2022-09-09T14:25:22.470Z,27.43
2022-09-09T14:27:52.350Z,27.29
2022-09-09T14:30:21.734Z,27.02
2022-09-09T14:32:49.738Z,26.82
2022-09-09T14:35:18.309Z,26.77
2022-09-09T14:37:47.691Z,26.48
2022-09-09T14:40:17.686Z,26.30
2022-09-09T14:42:45.742Z,26.19
2022-09-09T14:45:14.172Z,26.10
2022-09-09T14:47:43.618Z,25.93
2022-09-09T14:50:13.373Z,25.89
2022-09-09T14:52:41.510Z,25.93
2022-09-09T14:55:10.449Z,25.97
2022-09-09T14:57:39.954Z,26.02
2022-09-09T15:00:09.601Z,26.18
2022-09-09T15:02:37.741Z,26.21
2022-09-09T15:05:08.058Z,26.27
2022-09-09T15:07:36.693Z,26.34
2022-09-09T15:10:06.100Z,26.47
2022-09-09T15:12:34.253Z,26.47
2022-09-09T15:15:02.259Z,26.55
2022-09-09T15:17:30.394Z,26.60
2022-09-09T15:19:58.489Z,26.80
2022-09-09T15:22:27.890Z,27.05
2022-09-09T15:24:55.950Z,27.36
2022-09-09T15:27:24.895Z,27.66
2022-09-09T15:29:53.313Z,27.83
2022-09-09T15:32:21.370Z,27.86
2022-09-09T15:34:52.369Z,27.79
2022-09-09T15:37:20.392Z,27.71
2022-09-09T15:39:49.919Z,27.68
2022-09-09T15:42:17.962Z,27.66
2022-09-09T15:44:45.962Z,27.66
2022-09-09T15:47:16.150Z,27.61
2022-09-09T15:49:44.226Z,27.40
2022-09-09T15:52:12.837Z,27.21
2022-09-09T15:54:41.095Z,27.01
2022-09-09T15:57:14.531Z,26.84
2022-09-09T15:59:42.670Z,26.77
2022-09-09T16:02:12.011Z,26.70
2022-09-09T16:04:40.266Z,26.61
2022-09-09T16:07:08.390Z,26.51
2022-09-09T16:09:37.141Z,26.40
2022-09-09T16:12:08.853Z,26.35
2022-09-09T16:14:39.641Z,26.33
2022-09-09T16:17:08.104Z,26.25
2022-09-09T16:19:36.550Z,26.18
2022-09-09T16:22:05.522Z,26.07
2022-09-09T16:24:33.615Z,26.12
2022-09-09T16:27:01.608Z,26.25
2022-09-09T16:29:29.722Z,26.38
2022-09-09T16:32:03.584Z,26.50
2022-09-09T16:34:34.654Z,26.60
2022-09-09T16:37:03.020Z,26.64
2022-09-09T16:39:31.088Z,26.64
2022-09-09T16:41:59.209Z,26.60
2022-09-09T16:44:27.286Z,26.53
2022-09-09T16:47:00.421Z,26.48
2022-09-09T16:49:30.315Z,26.41
2022-09-09T16:52:00.809Z,26.34
2022-09-09T16:54:29.975Z,26.24
2022-09-09T16:56:58.496Z,26.10
2022-09-09T16:59:27.517Z,26.03
2022-09-09T17:01:55.788Z,25.98
2022-09-09T17:04:27.308Z,25.90
2022-09-09T17:06:58.403Z,25.82
2022-09-09T17:09:29.996Z,25.78
2022-09-09T17:11:58.649Z,25.78
2022-09-09T17:14:26.855Z,25.73
2022-09-09T17:16:55.261Z,25.59
2022-09-09T17:19:23.505Z,25.49
2022-09-09T17:22:15.453Z,25.45
2022-09-09T17:24:41.855Z,25.38
2022-09-09T17:27:10.857Z,25.32
2022-09-09T17:29:39.522Z,25.18
2022-09-09T17:32:08.624Z,25.12
2022-09-09T17:34:37.407Z,25.09
2022-09-09T17:37:07.087Z,25.03
2022-09-09T17:39:35.617Z,25.01
2022-09-09T17:42:05.626Z,24.95
2022-09-09T17:44:34.343Z,24.90
2022-09-09T17:47:05.067Z,24.85
2022-09-09T17:49:34.162Z,24.83
2022-09-09T17:52:02.463Z,24.78
2022-09-09T17:54:30.846Z,24.71
2022-09-09T17:57:00.511Z,24.66
2022-09-09T17:59:30.324Z,24.70
2022-09-09T18:01:58.654Z,24.69
2022-09-09T18:04:26.936Z,24.68
2022-09-09T18:06:55.774Z,24.64
2022-09-09T18:09:26.882Z,24.64
2022-09-09T18:11:57.224Z,24.63
2022-09-09T18:14:28.664Z,24.60
2022-09-09T18:16:58.812Z,24.59
2022-09-09T18:19:31.140Z,24.58
2022-09-09T18:22:02.372Z,24.57
2022-09-09T18:24:32.958Z,24.58
2022-09-09T18:27:01.287Z,24.56
2022-09-09T18:29:30.110Z,24.51
2022-09-09T18:31:59.840Z,24.50
2022-09-09T18:34:30.268Z,24.49
2022-09-09T18:37:00.171Z,24.46
2022-09-09T18:39:30.410Z,24.44
2022-09-09T18:42:00.884Z,24.42
2022-09-09T18:44:31.598Z,24.36
2022-09-09T18:47:01.973Z,24.31
2022-09-09T18:49:30.380Z,24.25
2022-09-09T18:51:59.442Z,24.17
2022-09-09T18:54:30.498Z,24.16
2022-09-09T18:57:00.923Z,24.06
2022-09-09T18:59:29.561Z,23.98
2022-09-09T19:01:58.091Z,23.89
2022-09-09T19:04:28.122Z,23.84
2022-09-09T19:06:58.890Z,23.70
2022-09-09T19:09:29.484Z,23.61
2022-09-09T19:11:58.264Z,23.55
2022-09-09T19:14:26.855Z,23.50
2022-09-09T19:16:55.561Z,23.43
2022-09-09T19:19:28.668Z,23.35
2022-09-09T19:21:57.855Z,23.32
2022-09-09T19:24:28.500Z,23.31
2022-09-09T19:27:01.577Z,23.28
2022-09-09T19:29:32.030Z,23.25
2022-09-09T19:32:49.395Z,23.21
2022-09-09T19:34:52.580Z,23.13
2022-09-09T19:37:22.558Z,23.14
2022-09-09T19:39:50.979Z,23.06
2022-09-09T19:42:19.445Z,23.00
2022-09-09T19:44:47.999Z,22.99
2022-09-09T19:47:16.702Z,23.00
2022-09-09T19:49:47.489Z,22.98
2022-09-09T19:52:18.176Z,22.96
2022-09-09T19:54:47.128Z,22.93
2022-09-09T19:57:16.218Z,22.93
2022-09-09T19:59:44.549Z,22.96
2022-09-09T20:02:15.374Z,23.01
2022-09-09T20:04:44.884Z,23.07
2022-09-09T20:07:13.554Z,23.02
2022-09-09T20:09:43.287Z,22.98
2022-09-09T20:12:11.733Z,23.00
2022-09-09T20:14:40.345Z,23.03
2022-09-09T20:17:10.156Z,23.02
2022-09-09T20:19:39.937Z,23.03
2022-09-09T20:22:08.420Z,23.03
2022-09-09T20:24:38.137Z,23.06
2022-09-09T20:27:08.560Z,23.08
2022-09-09T20:29:37.779Z,23.06
2022-09-09T20:32:07.025Z,23.01
2022-09-09T20:34:35.444Z,22.95
2022-09-09T20:37:04.768Z,22.94
2022-09-09T20:39:33.197Z,22.92
2022-09-09T20:42:03.079Z,22.84
2022-09-09T20:44:33.109Z,22.80
2022-09-09T20:47:06.284Z,22.79
2022-09-09T20:49:35.332Z,22.76
2022-09-09T20:52:04.158Z,22.76
2022-09-09T20:54:33.511Z,22.68
2022-09-09T20:57:02.103Z,22.53
2022-09-09T20:59:32.458Z,22.44
2022-09-09T21:02:01.647Z,22.38
2022-09-09T21:04:31.283Z,22.31
2022-09-09T21:06:59.564Z,22.33
2022-09-09T21:09:29.180Z,22.27
2022-09-09T21:11:57.508Z,22.26
2022-09-09T21:14:27.360Z,22.29
2022-09-09T21:16:58.609Z,22.28
2022-09-09T21:19:26.898Z,22.31
2022-09-09T21:21:55.244Z,22.29
2022-09-09T21:24:23.489Z,22.27
2022-09-09T21:26:51.849Z,22.23
2022-09-09T21:29:20.204Z,22.21
2022-09-09T21:31:48.574Z,22.21
2022-09-09T21:34:18.509Z,22.17
2022-09-09T21:36:46.882Z,22.13
2022-09-09T21:39:15.296Z,22.08
2022-09-09T21:41:43.649Z,22.05
2022-09-09T21:44:14.498Z,22.04
2022-09-09T21:46:44.449Z,21.99
2022-09-09T21:49:12.869Z,21.99
2022-09-09T21:51:42.723Z,22.01
2022-09-09T21:54:10.994Z,22.04
2022-09-09T21:56:39.675Z,22.06
2022-09-09T21:59:08.220Z,22.03
2022-09-09T22:01:36.586Z,22.02
2022-09-09T22:04:05.219Z,21.98
2022-09-09T22:06:34.227Z,21.95
2022-09-09T22:09:03.954Z,21.91
2022-09-09T22:11:34.082Z,21.89
2022-09-09T22:14:03.194Z,21.91
2022-09-09T22:16:31.789Z,21.87
2022-09-09T22:19:01.920Z,21.84
2022-09-09T22:21:34.361Z,21.79
2022-09-09T22:24:06.049Z,21.76
2022-09-09T22:26:37.771Z,21.75
2022-09-09T22:29:07.417Z,21.75
2022-09-09T22:31:37.071Z,21.77
2022-09-09T22:34:06.878Z,21.73
2022-09-09T22:36:38.240Z,21.70
2022-09-09T22:39:07.898Z,21.69
2022-09-09T22:41:36.186Z,21.65
2022-09-09T22:44:04.804Z,21.65
2022-09-09T22:46:33.229Z,21.66
2022-09-09T22:49:03.504Z,21.66
2022-09-09T22:51:34.360Z,21.68
2022-09-09T22:54:02.847Z,21.72
2022-09-09T22:56:32.979Z,21.66
2022-09-09T22:59:01.718Z,21.62
2022-09-09T23:01:30.828Z,21.64
2022-09-09T23:04:01.763Z,21.62
2022-09-09T23:06:31.966Z,21.60
2022-09-09T23:09:02.635Z,21.52
2022-09-09T23:11:34.639Z,21.54
2022-09-09T23:14:05.127Z,21.54
2022-09-09T23:16:38.366Z,21.57
2022-09-09T23:19:08.480Z,21.52
2022-09-09T23:21:37.385Z,21.52
2022-09-09T23:24:08.280Z,21.47
2022-09-09T23:26:38.588Z,21.44
2022-09-09T23:29:06.602Z,21.45
2022-09-09T23:31:37.935Z,21.45
2022-09-09T23:34:06.702Z,21.42
2022-09-09T23:36:34.990Z,21.40
2022-09-09T23:39:05.437Z,21.37
2022-09-09T23:41:35.681Z,21.36
2022-09-09T23:44:06.304Z,21.33
2022-09-09T23:46:35.788Z,21.33
2022-09-09T23:49:05.051Z,21.29
2022-09-09T23:51:33.982Z,21.21
2022-09-09T23:54:05.053Z,21.24
2022-09-09T23:56:35.326Z,21.29
2022-09-09T23:59:05.540Z,21.21
